Time;durP1;ratioP1;P1;durP2;ratioP2;P2;SDS_P1;SDS_P2;PMS_P1;PMS_P2;Temp;Humidity;BMP_temperature;BMP_pressure;BME280_temperature;BME280_humidity;BME280_pressure;Samples;Min_cycle;Max_cycle;Signal;HPM_P1;HPM_P2
2023/03/09 00:00:22;;;;;;;;;;;;;;;;;;6301148;22;19981;-56
2023/03/09 00:02:49;;;;;;;;;;;;;;;;;;6301246;22;19915;-59
2023/03/09 00:05:16;;;;;;;;;;;;;;;;;;6301187;22;20329;-63
2023/03/09 00:07:50;;;;;;;;;;;;;;;;;;6301022;22;20271;-60
2023/03/09 00:10:17;;;;;;;;;;;;;;;;;;6301096;22;20349;-60
2023/03/09 00:12:51;;;;;;;;;;;;;;;;;;6301252;22;20383;-54
2023/03/09 00:15:18;;;;;;;;;;;;;;;;;;6301393;22;19993;-64
2023/03/09 00:17:45;;;;;;;;;;;;;;;;;;6300675;22;19921;-64
2023/03/09 00:20:19;;;;;;;;;;;;;;;;;;6301890;22;19925;-63
2023/03/09 00:22:46;;;;;;;;;;;;;;;;;;6299303;22;20319;-63
2023/03/09 00:25:21;;;;;;;;;;;;;;;;;;6301104;22;20010;-64
2023/03/09 00:27:48;;;;;;;;;;;;;;;;;;6300334;22;20010;-64
2023/03/09 00:30:22;;;;;;;;;;;;;;;;;;6301627;22;20260;-55
2023/03/09 00:32:49;;;;;;;;;;;;;;;;;;6299712;22;19957;-55
2023/03/09 00:35:23;;;;;;;;;;;;;;;;;;6301337;22;19915;-54
2023/03/09 00:37:50;;;;;;;;;;;;;;;;;;6299538;22;20739;-54
2023/03/09 00:40:17;;;;;;;;;;;;;;;;;;6301538;22;19994;-56
2023/03/09 00:42:51;;;;;;;;;;;;;;;;;;6300488;22;19919;-51
2023/03/09 00:45:18;;;;;;;;;;;;;;;;;;6300586;22;19929;-52
2023/03/09 00:47:52;;;;;;;;;;;;;;;;;;6301040;22;20002;-54
2023/03/09 00:50:19;;;;;;;;;;;;;;;;;;6299777;22;19946;-53
2023/03/09 00:52:46;;;;;;;;;;;;;;;;;;6298972;22;19998;-56
2023/03/09 00:55:20;;;;;;;;;;;;;;;;;;6301541;22;19958;-55
2023/03/09 00:57:47;;;;;;;;;;;;;;;;;;6301276;22;19921;-47
2023/03/09 01:00:21;;;;;;;;;;;;;;;;;;6299874;22;19919;-48
2023/03/09 01:02:48;;;;;;;;;;;;;;;;;;6300202;22;20318;-46
2023/03/09 01:05:15;;;;;;;;;;;;;;;;;;6300199;22;19915;-50
2023/03/09 01:07:49;;;;;;;;;;;;;;;;;;6299684;22;19990;-53
2023/03/09 01:10:16;;;;;;;;;;;;;;;;;;6302104;22;19958;-52
2023/03/09 01:12:50;;;;;;;;;;;;;;;;;;6299681;22;19914;-52
2023/03/09 01:15:17;;;;;;;;;;;;;;;;;;6300412;22;20494;-52
2023/03/09 01:17:44;;;;;;;;;;;;;;;;;;6299683;22;19921;-51
2023/03/09 01:20:18;;;;;;;;;;;;;;;;;;6301470;22;19929;-53
2023/03/09 01:22:45;;;;;;;;;;;;;;;;;;6299684;22;19990;-55
2023/03/09 01:25:19;;;;;;;;;;;;;;;;;;6301873;22;19950;-50
2023/03/09 01:27:46;;;;;;;;;;;;;;;;;;6300320;22;19918;-52
2023/03/09 01:30:13;;;;;;;;;;;;;;;;;;6299484;22;19929;-48
2023/03/09 01:32:47;;;;;;;;;;;;;;;;;;6299182;22;19921;-48
2023/03/09 01:35:14;;;;;;;;;;;;;;;;;;6300552;22;20013;-53
2023/03/09 01:37:48;;;;;;;;;;;;;;;;;;6298942;22;19918;-53
2023/03/09 01:40:15;;;;;;;;;;;;;;;;;;6300761;22;19982;-63
2023/03/09 01:42:42;;;;;;;;;;;;;;;;;;6299671;22;19968;-63
2023/03/09 01:45:16;;;;;;;;;;;;;;;;;;6300956;22;19915;-64
2023/03/09 01:47:43;;;;;;;;;;;;;;;;;;6298996;22;19997;-64
2023/03/09 01:50:17;;;;;;;;;;;;;;;;;;6300074;22;20396;-63
2023/03/09 01:52:44;;;;;;;;;;;;;;;;;;6299055;22;19919;-64
2023/03/09 01:55:18;;;;;;;;;;;;;;;;;;6301595;22;19921;-49
2023/03/09 01:57:45;;;;;;;;;;;;;;;;;;6299893;22;19973;-50
2023/03/09 02:00:19;;;;;;;;;;;;;;;;;;6299904;22;20766;-47
2023/03/09 02:02:46;;;;;;;;;;;;;;;;;;6299111;22;20006;-53
2023/03/09 02:05:20;;;;;;;;;;;;;;;;;;6300385;22;19954;-63
2023/03/09 02:07:47;;;;;;;;;;;;;;;;;;6298841;22;20010;-52
2023/03/09 02:10:14;;;;;;;;;;;;;;;;;;6300947;22;20427;-52
2023/03/09 02:12:52;;;;;;;;;;;;;;;;;;6298546;22;19961;-55
2023/03/09 02:15:19;;;;;;;;;;;;;;;;;;6299373;22;19972;-51
2023/03/09 02:17:53;;;;;;;;;;;;;;;;;;6297196;22;19945;-55
2023/03/09 02:20:20;;;;;;;;;;;;;;;;;;6300245;22;19925;-53
2023/03/09 02:22:47;;;;;;;;;;;;;;;;;;6299324;22;20333;-50
2023/03/09 02:25:21;;;;;;;;;;;;;;;;;;6300603;22;19925;-48
2023/03/09 02:27:48;;;;;;;;;;;;;;;;;;6298606;22;20336;-49
2023/03/09 02:30:22;;;;;;;;;;;;;;;;;;6298861;22;20411;-53
2023/03/09 02:32:49;;;;;;;;;;;;;;;;;;6299588;22;19998;-50
2023/03/09 02:35:23;;;;;;;;;;;;;;;;;;6300107;22;19921;-60
2023/03/09 02:37:50;;;;;;;;;;;;;;;;;;6299002;22;20362;-52
2023/03/09 02:40:24;;;;;;;;;;;;;;;;;;6300979;22;20009;-53
2023/03/09 02:42:58;;;;;;;;;;;;;;;;;;6299882;22;19919;-52
2023/03/09 02:45:25;;;;;;;;;;;;;;;;;;6300120;22;19989;-52
2023/03/09 02:47:58;;;;;;;;;;;;;;;;;;6298516;22;19915;-53
2023/03/09 02:50:25;;;;;;;;;;;;;;;;;;6299828;22;19921;-51
2023/03/09 02:52:52;;;;;;;;;;;;;;;;;;6299098;22;20327;-50
2023/03/09 02:55:26;;;;;;;;;;;;;;;;;;6301169;22;19994;-50
2023/03/09 02:57:53;;;;;;;;;;;;;;;;;;6297798;22;19981;-51
2023/03/09 03:00:27;;;;;;;;;;;;;;;;;;6300281;22;19936;-51
2023/03/09 03:02:54;;;;;;;;;;;;;;;;;;6298444;22;19919;-55
2023/03/09 03:05:21;;;;;;;;;;;;;;;;;;6300810;22;19922;-53
2023/03/09 03:07:55;;;;;;;;;;;;;;;;;;6297138;22;19990;-49
2023/03/09 03:10:22;;;;;;;;;;;;;;;;;;6300998;22;19983;-52
2023/03/09 03:12:56;;;;;;;;;;;;;;;;;;6299039;22;19958;-54
2023/03/09 03:15:23;;;;;;;;;;;;;;;;;;6299893;22;19925;-55
2023/03/09 03:17:50;;;;;;;;;;;;;;;;;;6299015;22;20305;-51
2023/03/09 03:20:24;;;;;;;;;;;;;;;;;;6300649;22;20009;-56
2023/03/09 03:22:51;;;;;;;;;;;;;;;;;;6299568;22;19998;-57
2023/03/09 03:25:25;;;;;;;;;;;;;;;;;;6300890;22;19918;-52
2023/03/09 03:27:52;;;;;;;;;;;;;;;;;;6298093;22;19993;-53
2023/03/09 03:30:19;;;;;;;;;;;;;;;;;;6299542;22;20001;-51
2023/03/09 03:32:53;;;;;;;;;;;;;;;;;;6299727;22;19972;-50
2023/03/09 03:35:20;;;;;;;;;;;;;;;;;;6299218;22;20327;-45
2023/03/09 03:37:54;;;;;;;;;;;;;;;;;;6298619;22;19918;-47
2023/03/09 03:40:22;;;;;;;;;;;;;;;;;;6300286;22;19969;-47
2023/03/09 03:42:49;;;;;;;;;;;;;;;;;;6299031;22;20005;-48
2023/03/09 03:45:23;;;;;;;;;;;;;;;;;;6300605;22;19942;-46
2023/03/09 03:47:50;;;;;;;;;;;;;;;;;;6298441;22;20087;-44
2023/03/09 03:50:24;;;;;;;;;;;;;;;;;;6299910;22;20320;-49
2023/03/09 03:52:51;;;;;;;;;;;;;;;;;;6299315;22;19954;-55
2023/03/09 03:55:18;;;;;;;;;;;;;;;;;;6299758;22;19915;-46
2023/03/09 03:57:52;;;;;;;;;;;;;;;;;;6298766;22;19918;-50
2023/03/09 04:00:19;;;;;;;;;;;;;;;;;;6298384;22;19993;-52
2023/03/09 04:02:53;;;;;;;;;;;;;;;;;;6299123;22;20383;-55
2023/03/09 04:05:20;;;;;;;;;;;;;;;;;;6301144;22;19925;-50
2023/03/09 04:07:47;;;;;;;;;;;;;;;;;;6301718;22;20396;-52
2023/03/09 04:10:23;;;;;;;;;;;;;;;;;;6302017;22;20001;-52
2023/03/09 04:12:50;;;;;;;;;;;;;;;;;;6300518;22;20411;-51
2023/03/09 04:15:24;;;;;;;;;;;;;;;;;;6300460;22;20025;-56
2023/03/09 04:17:51;;;;;;;;;;;;;;;;;;6300012;22;19985;-51
2023/03/09 04:20:18;;;;;;;;;;;;;;;;;;6300858;22;19918;-51
2023/03/09 04:22:52;;;;;;;;;;;;;;;;;;6301579;22;19961;-50
2023/03/09 04:25:19;;;;;;;;;;;;;;;;;;6299340;22;19922;-50
2023/03/09 04:27:46;;;;;;;;;;;;;;;;;;6300667;22;20354;-55
2023/03/09 04:30:20;;;;;;;;;;;;;;;;;;6301917;22;20006;-59
2023/03/09 04:32:47;;;;;;;;;;;;;;;;;;6300548;22;19919;-59
2023/03/09 04:35:21;;;;;;;;;;;;;;;;;;6275294;22;19919;-59
2023/03/09 04:37:48;;;;;;;;;;;;;;;;;;6300694;22;20376;-59
2023/03/09 04:40:15;;;;;;;;;;;;;;;;;;6299841;22;19940;-59
2023/03/09 04:42:49;;;;;;;;;;;;;;;;;;6298941;22;20006;-59
2023/03/09 04:45:16;;;;;;;;;;;;;;;;;;6301488;22;20218;-63
2023/03/09 04:47:50;;;;;;;;;;;;;;;;;;6300098;22;19915;-63
2023/03/09 04:50:17;;;;;;;;;;;;;;;;;;6300502;22;20001;-63
2023/03/09 04:52:44;;;;;;;;;;;;;;;;;;6300408;22;20029;-63
2023/03/09 04:55:18;;;;;;;;;;;;;;;;;;6274563;22;19919;-60
2023/03/09 04:57:45;;;;;;;;;;;;;;;;;;6300189;22;19990;-55
2023/03/09 05:00:19;;;;;;;;;;;;;;;;;;6300845;22;19923;-54
2023/03/09 05:02:46;;;;;;;;;;;;;;;;;;6296533;22;19946;-52
2023/03/09 05:05:16;;;;;;;;;;;;;;;;;;6300477;22;19923;-55
2023/03/09 05:07:50;;;;;;;;;;;;;;;;;;6301996;22;20010;-53
2023/03/09 05:10:17;;;;;;;;;;;;;;;;;;6300478;22;19965;-53
2023/03/09 05:12:51;;;;;;;;;;;;;;;;;;6299666;22;20411;-52
2023/03/09 05:15:18;;;;;;;;;;;;;;;;;;6301909;22;19994;-52
2023/03/09 05:17:45;;;;;;;;;;;;;;;;;;6300629;22;19989;-63
2023/03/09 05:20:19;;;;;;;;;;;;;;;;;;6297311;22;19926;-62
2023/03/09 05:22:46;;;;;;;;;;;;;;;;;;6299611;22;19950;-63
2023/03/09 05:25:13;;;;;;;;;;;;;;;;;;6300903;22;20001;-63
2023/03/09 05:27:47;;;;;;;;;;;;;;;;;;6298030;22;19993;-63
2023/03/09 05:30:14;;;;;;;;;;;;;;;;;;6297077;22;19919;-62
2023/03/09 05:32:49;;;;;;;;;;;;;;;;;;6298946;22;19942;-54
2023/03/09 05:35:17;;;;;;;;;;;;;;;;;;6298937;22;19946;-55
2023/03/09 05:37:44;;;;;;;;;;;;;;;;;;6300275;22;19934;-53
2023/03/09 05:40:21;;;;;;;;;;;;;;;;;;6297899;22;19935;-52
2023/03/09 05:42:48;;;;;;;;;;;;;;;;;;6296767;22;19946;-54
2023/03/09 05:45:21;;;;;;;;;;;;;;;;;;6296929;22;20268;-55
2023/03/09 05:47:48;;;;;;;;;;;;;;;;;;6296649;22;19993;-56
2023/03/09 05:50:15;;;;;;;;;;;;;;;;;;6296854;22;19957;-56
2023/03/09 05:52:49;;;;;;;;;;;;;;;;;;6298005;22;19958;-57
2023/03/09 05:55:16;;;;;;;;;;;;;;;;;;6299592;22;19915;-59
2023/03/09 05:57:50;;;;;;;;;;;;;;;;;;6299400;22;19954;-59
2023/03/09 06:00:17;;;;;;;;;;;;;;;;;;6299134;22;19996;-59
2023/03/09 06:02:44;;;;;;;;;;;;;;;;;;6299576;22;19946;-60
2023/03/09 06:05:18;;;;;;;;;;;;;;;;;;6299994;22;19942;-61
2023/03/09 06:07:45;;;;;;;;;;;;;;;;;;6300219;22;20352;-60
2023/03/09 06:10:19;;;;;;;;;;;;;;;;;;6301036;22;20173;-49
2023/03/09 06:12:46;;;;;;;;;;;;;;;;;;6298511;22;19969;-55
2023/03/09 06:15:13;;;;;;;;;;;;;;;;;;6295722;22;19928;-51
2023/03/09 06:17:47;;;;;;;;;;;;;;;;;;6298767;22;19915;-53
2023/03/09 06:20:14;;;;;;;;;;;;;;;;;;6298504;22;19973;-53
2023/03/09 06:22:44;;;;;;;;;;;;;;;;;;6299778;22;19950;-56
2023/03/09 06:25:18;;;;;;;;;;;;;;;;;;6299985;22;20362;-57
2023/03/09 06:27:45;;;;;;;;;;;;;;;;;;6299054;22;19965;-58
2023/03/09 06:30:21;;;;;;;;;;;;;;;;;;6298424;22;19919;-58
2023/03/09 06:32:48;;;;;;;;;;;;;;;;;;6297021;22;19983;-58
2023/03/09 06:35:15;;;;;;;;;;;;;;;;;;6298065;22;19915;-58
2023/03/09 06:37:49;;;;;;;;;;;;;;;;;;6298213;22;19926;-55
2023/03/09 06:40:17;;;;;;;;;;;;;;;;;;6299055;22;19982;-60
2023/03/09 06:42:44;;;;;;;;;;;;;;;;;;6299314;22;19919;-63
2023/03/09 06:45:20;;;;;;;;;;;;;;;;;;6296050;22;20363;-63
2023/03/09 06:47:47;;;;;;;;;;;;;;;;;;6294251;22;20017;-63
2023/03/09 06:50:21;;;;;;;;;;;;;;;;;;6298918;22;19962;-63
2023/03/09 06:52:48;;;;;;;;;;;;;;;;;;6298717;22;19993;-63
2023/03/09 06:55:15;;;;;;;;;;;;;;;;;;6297886;22;19946;-63
2023/03/09 06:57:49;;;;;;;;;;;;;;;;;;6300097;22;19997;-64
2023/03/09 07:00:16;;;;;;;;;;;;;;;;;;6300132;22;19986;-56
2023/03/09 07:02:43;;;;;;;;;;;;;;;;;;6299590;22;19919;-56
2023/03/09 07:05:17;;;;;;;;;;;;;;;;;;6300136;22;19997;-57
2023/03/09 07:07:44;;;;;;;;;;;;;;;;;;6299087;22;19989;-55
2023/03/09 07:10:18;;;;;;;;;;;;;;;;;;6299293;22;20010;-54
2023/03/09 07:12:45;;;;;;;;;;;;;;;;;;6298675;22;19919;-56
2023/03/09 07:15:12;;;;;;;;;;;;;;;;;;6299215;22;19994;-56
2023/03/09 07:17:46;;;;;;;;;;;;;;;;;;6298883;22;19915;-57
2023/03/09 07:20:13;;;;;;;;;;;;;;;;;;6298966;22;19990;-53
2023/03/09 07:22:47;;;;;;;;;;;;;;;;;;6299281;22;20053;-57
2023/03/09 07:25:14;;;;;;;;;;;;;;;;;;6298153;22;20001;-54
2023/03/09 07:27:41;;;;;;;;;;;;;;;;;;6297394;22;20006;-60
2023/03/09 07:30:15;;;;;;;;;;;;;;;;;;6297847;22;20343;-60
2023/03/09 07:32:42;;;;;;;;;;;;;;;;;;6297497;22;19915;-60
2023/03/09 07:35:15;;;;;;;;;;;;;;;;;;6299770;22;19918;-60
2023/03/09 07:37:42;;;;;;;;;;;;;;;;;;6299017;22;20404;-60
2023/03/09 07:40:16;;;;;;;;;;;;;;;;;;6299525;22;19961;-60
2023/03/09 07:42:43;;;;;;;;;;;;;;;;;;6302463;22;19982;-59
2023/03/09 07:45:10;;;;;;;;;;;;;;;;;;6299771;22;20454;-58
2023/03/09 07:47:44;;;;;;;;;;;;;;;;;;6299179;22;19925;-59
2023/03/09 07:50:11;;;;;;;;;;;;;;;;;;6297839;22;19918;-58
2023/03/09 07:52:38;;;;;;;;;;;;;;;;;;6299791;22;20371;-63
2023/03/09 07:55:12;;;;;;;;;;;;;;;;;;6300531;22;19921;-50
2023/03/09 07:57:39;;;;;;;;;;;;;;;;;;6300892;22;19915;-63
2023/03/09 08:00:13;;;;;;;;;;;;;;;;;;6300565;22;20352;-64
2023/03/09 08:02:40;;;;;;;;;;;;;;;;;;6301553;22;19923;-64
2023/03/09 08:05:15;;;;;;;;;;;;;;;;;;6301405;22;19965;-63
2023/03/09 08:07:42;;;;;;;;;;;;;;;;;;6301547;22;19946;-64
2023/03/09 08:10:16;;;;;;;;;;;;;;;;;;6301248;22;19968;-63
2023/03/09 08:12:43;;;;;;;;;;;;;;;;;;6301551;22;19928;-58
2023/03/09 08:15:10;;;;;;;;;;;;;;;;;;6300525;22;20076;-57
2023/03/09 08:17:44;;;;;;;;;;;;;;;;;;6300190;22;19925;-57
2023/03/09 08:20:11;;;;;;;;;;;;;;;;;;6301899;22;19986;-57
2023/03/09 08:22:45;;;;;;;;;;;;;;;;;;6302105;22;19914;-61
2023/03/09 08:25:12;;;;;;;;;;;;;;;;;;6298966;22;20336;-52
2023/03/09 08:27:39;;;;;;;;;;;;;;;;;;6275377;22;19925;-54
2023/03/09 08:30:14;;;;;;;;;;;;;;;;;;6300358;22;20001;-55
2023/03/09 08:32:42;;;;;;;;;;;;;;;;;;6302388;22;19965;-52
2023/03/09 08:35:16;;;;;;;;;;;;;;;;;;6301555;22;20324;-57
2023/03/09 08:37:43;;;;;;;;;;;;;;;;;;6301732;22;19915;-57
2023/03/09 08:40:11;;;;;;;;;;;;;;;;;;6300906;22;19958;-56
2023/03/09 08:42:44;;;;;;;;;;;;;;;;;;6301584;22;19961;-54
2023/03/09 08:45:11;;;;;;;;;;;;;;;;;;6301064;22;19969;-55
2023/03/09 08:47:38;;;;;;;;;;;;;;;;;;6302069;22;20336;-53
2023/03/09 08:50:12;;;;;;;;;;;;;;;;;;6298953;22;19965;-63
2023/03/09 08:52:40;;;;;;;;;;;;;;;;;;6300446;22;19950;-57
2023/03/09 08:55:14;;;;;;;;;;;;;;;;;;6300072;22;20321;-57
2023/03/09 08:57:41;;;;;;;;;;;;;;;;;;6301028;22;19965;-56
2023/03/09 09:00:09;;;;;;;;;;;;;;;;;;6300723;22;19964;-55
2023/03/09 09:02:43;;;;;;;;;;;;;;;;;;6301539;22;19997;-56
2023/03/09 09:05:10;;;;;;;;;;;;;;;;;;6300558;22;19922;-55
2023/03/09 09:07:44;;;;;;;;;;;;;;;;;;6301595;22;20276;-57
2023/03/09 09:10:12;;;;;;;;;;;;;;;;;;6300103;22;20233;-58
2023/03/09 09:12:52;;;;;;;;;;;;;;;;;;6300275;22;19921;-59
2023/03/09 09:15:26;;;;;;;;;;;;;;;;;;6299894;22;20021;-59
2023/03/09 09:17:56;;;;;;;;;;;;;;;;;;6300954;22;19915;-54
2023/03/09 09:20:37;;;;;;;;;;;;;;;;;;6300870;22;19957;-55
2023/03/09 09:23:04;;;;;;;;;;;;;;;;;;6301129;22;20311;-51
2023/03/09 09:25:38;;;;;;;;;;;;;;;;;;6301044;22;19997;-54
2023/03/09 09:28:05;;;;;;;;;;;;;;;;;;6301027;22;19982;-55
2023/03/09 09:30:32;;;;;;;;;;;;;;;;;;6299281;22;19968;-56
2023/03/09 09:33:06;;;;;;;;;;;;;;;;;;6273445;22;19981;-55
2023/03/09 09:35:40;;;;;;;;;;;;;;;;;;6300928;22;19941;-54
2023/03/09 09:38:14;;;;;;;;;;;;;;;;;;6299418;22;19926;-55
2023/03/09 09:40:41;;;;;;;;;;;;;;;;;;6299982;22;19998;-55
2023/03/09 09:43:15;;;;;;;;;;;;;;;;;;6300650;22;19914;-56
2023/03/09 09:45:43;;;;;;;;;;;;;;;;;;6299904;22;20411;-55
2023/03/09 09:48:18;;;;;;;;;;;;;;;;;;6301117;22;19926;-55
2023/03/09 09:50:45;;;;;;;;;;;;;;;;;;6300408;22;20002;-56
2023/03/09 09:53:19;;;;;;;;;;;;;;;;;;6300066;22;19921;-53
2023/03/09 09:55:46;;;;;;;;;;;;;;;;;;6300759;22;20396;-56
2023/03/09 09:58:14;;;;;;;;;;;;;;;;;;6300121;22;19930;-56
2023/03/09 10:00:48;;;;;;;;;;;;;;;;;;6299825;22;19919;-55
2023/03/09 10:03:15;;;;;;;;;;;;;;;;;;6299820;22;19925;-56
2023/03/09 10:05:50;;;;;;;;;;;;;;;;;;6301726;22;20239;-60
2023/03/09 10:08:17;;;;;;;;;;;;;;;;;;6271986;22;19939;-61
2023/03/09 10:10:50;;;;;;;;;;;;;;;;;;6299780;22;19918;-61
2023/03/09 10:13:17;;;;;;;;;;;;;;;;;;6300060;22;20324;-60
2023/03/09 10:15:44;;;;;;;;;;;;;;;;;;6299428;22;20367;-62
2023/03/09 10:18:33;;;;;;;;;;;;;;;;;;6299426;22;19915;-54
2023/03/09 10:21:00;;;;;;;;;;;;;;;;;;6300338;22;19996;-57
2023/03/09 10:23:34;;;;;;;;;;;;;;;;;;6299070;22;19997;-55
2023/03/09 10:26:04;;;;;;;;;;;;;;;;;;6300456;22;19915;-52
2023/03/09 10:28:38;;;;;;;;;;;;;;;;;;6299952;22;20403;-53
2023/03/09 10:31:05;;;;;;;;;;;;;;;;;;6300562;22;19958;-56
2023/03/09 10:33:32;;;;;;;;;;;;;;;;;;6300936;22;20006;-52
2023/03/09 10:36:06;;;;;;;;;;;;;;;;;;6300293;22;20001;-54
2023/03/09 10:38:33;;;;;;;;;;;;;;;;;;6300830;22;19982;-54
2023/03/09 10:41:07;;;;;;;;;;;;;;;;;;6300244;22;19981;-54
2023/03/09 10:43:34;;;;;;;;;;;;;;;;;;6300487;22;20001;-56
2023/03/09 10:46:08;;;;;;;;;;;;;;;;;;6299754;22;19958;-57
2023/03/09 10:48:35;;;;;;;;;;;;;;;;;;6300368;22;19919;-58
2023/03/09 10:51:09;;;;;;;;;;;;;;;;;;6299319;22;20359;-59
2023/03/09 10:53:36;;;;;;;;;;;;;;;;;;6299637;22;19954;-59
2023/03/09 10:56:10;;;;;;;;;;;;;;;;;;6299441;22;19950;-57
2023/03/09 10:58:37;;;;;;;;;;;;;;;;;;6300225;22;20332;-58
2023/03/09 11:01:11;;;;;;;;;;;;;;;;;;6297712;22;20025;-59
2023/03/09 11:03:38;;;;;;;;;;;;;;;;;;6301100;22;19915;-58
2023/03/09 11:06:12;;;;;;;;;;;;;;;;;;6299546;22;19997;-57
2023/03/09 11:08:39;;;;;;;;;;;;;;;;;;6300781;22;19919;-59
2023/03/09 11:11:24;;;;;;;;;;;;;;;;;;6299391;22;20000;-57
2023/03/09 11:13:58;;;;;;;;;;;;;;;;;;6300808;22;19918;-63
2023/03/09 11:16:25;;;;;;;;;;;;;;;;;;6301333;22;19961;-56
2023/03/09 11:18:59;;;;;;;;;;;;;;;;;;6301186;22;19964;-56
2023/03/09 11:21:26;;;;;;;;;;;;;;;;;;6302129;22;20431;-54
2023/03/09 11:24:00;;;;;;;;;;;;;;;;;;6302088;22;19957;-54
2023/03/09 11:26:33;;;;;;;;;;;;;;;;;;6302731;22;19922;-56
2023/03/09 11:29:07;;;;;;;;;;;;;;;;;;6300631;22;20021;-55
2023/03/09 11:31:34;;;;;;;;;;;;;;;;;;6303089;22;20365;-56
2023/03/09 11:34:08;;;;;;;;;;;;;;;;;;6301538;22;20344;-58
2023/03/09 11:36:35;;;;;;;;;;;;;;;;;;6301247;22;19918;-57
2023/03/09 11:39:09;;;;;;;;;;;;;;;;;;6302651;22;19919;-58
2023/03/09 11:41:36;;;;;;;;;;;;;;;;;;6301663;22;20333;-57
2023/03/09 11:44:03;;;;;;;;;;;;;;;;;;6300819;22;20427;-57
2023/03/09 11:46:37;;;;;;;;;;;;;;;;;;6302317;22;20330;-58
2023/03/09 11:49:04;;;;;;;;;;;;;;;;;;6301054;22;19918;-58
2023/03/09 11:51:31;;;;;;;;;;;;;;;;;;6301524;22;19922;-58
2023/03/09 11:54:05;;;;;;;;;;;;;;;;;;6301721;22;20476;-57
2023/03/09 11:56:32;;;;;;;;;;;;;;;;;;6300153;22;20248;-59
2023/03/09 11:59:06;;;;;;;;;;;;;;;;;;6301362;22;19919;-60
2023/03/09 12:01:33;;;;;;;;;;;;;;;;;;6301872;22;19953;-60
2023/03/09 12:04:07;;;;;;;;;;;;;;;;;;6301204;22;19972;-61
2023/03/09 12:06:34;;;;;;;;;;;;;;;;;;6301644;22;20315;-60
2023/03/09 12:09:08;;;;;;;;;;;;;;;;;;6301907;22;19925;-60
2023/03/09 12:11:35;;;;;;;;;;;;;;;;;;6301730;22;19993;-57
2023/03/09 12:14:08;;;;;;;;;;;;;;;;;;6300875;22;19925;-56
2023/03/09 12:16:35;;;;;;;;;;;;;;;;;;6301667;22;20370;-50
2023/03/09 12:19:08;;;;;;;;;;;;;;;;;;6300433;22;19957;-56
2023/03/09 12:21:35;;;;;;;;;;;;;;;;;;6300637;22;20244;-58
2023/03/09 12:24:09;;;;;;;;;;;;;;;;;;6301771;22;19942;-57
2023/03/09 12:26:36;;;;;;;;;;;;;;;;;;6300845;22;20328;-56
2023/03/09 12:29:03;;;;;;;;;;;;;;;;;;6301674;22;19954;-57
2023/03/09 12:31:37;;;;;;;;;;;;;;;;;;6301341;22;19990;-54
2023/03/09 12:34:04;;;;;;;;;;;;;;;;;;6300010;22;20340;-55
2023/03/09 12:36:31;;;;;;;;;;;;;;;;;;6301122;22;19969;-57
2023/03/09 12:39:05;;;;;;;;;;;;;;;;;;6301611;22;19925;-55
2023/03/09 12:41:39;;;;;;;;;;;;;;;;;;6300572;22;19925;-54
2023/03/09 12:44:06;;;;;;;;;;;;;;;;;;6300784;22;19965;-54
2023/03/09 12:46:33;;;;;;;;;;;;;;;;;;6301466;22;19942;-53
2023/03/09 12:49:07;;;;;;;;;;;;;;;;;;6300381;22;19976;-56
2023/03/09 12:51:34;;;;;;;;;;;;;;;;;;6300277;22;19918;-53
2023/03/09 12:54:08;;;;;;;;;;;;;;;;;;6300412;22;19986;-55
2023/03/09 12:56:42;;;;;;;;;;;;;;;;;;6276991;22;19954;-47
2023/03/09 12:59:09;;;;;;;;;;;;;;;;;;6300616;22;19993;-50
2023/03/09 13:01:43;;;;;;;;;;;;;;;;;;6301518;22;19987;-53
2023/03/09 13:04:11;;;;;;;;;;;;;;;;;;6300124;22;19919;-51
2023/03/09 13:06:44;;;;;;;;;;;;;;;;;;6274916;22;19914;-52
2023/03/09 13:09:11;;;;;;;;;;;;;;;;;;6272555;22;19957;-62
2023/03/09 13:11:40;;;;;;;;;;;;;;;;;;6300745;22;19969;-63
2023/03/09 13:14:15;;;;;;;;;;;;;;;;;;6299650;22;19958;-63
2023/03/09 13:16:49;;;;;;;;;;;;;;;;;;6300461;22;20406;-63
2023/03/09 13:19:23;;;;;;;;;;;;;;;;;;6299574;22;19926;-63
2023/03/09 13:22:03;;;;;;;;;;;;;;;;;;6301598;22;19958;-63
2023/03/09 13:24:32;;;;;;;;;;;;;;;;;;6301508;22;19972;-55
2023/03/09 13:27:06;;;;;;;;;;;;;;;;;;6301140;22;19998;-56
2023/03/09 13:29:33;;;;;;;;;;;;;;;;;;6301111;22;19919;-51
2023/03/09 13:32:15;;;;;;;;;;;;;;;;;;6301353;22;20001;-55
2023/03/09 13:34:49;;;;;;;;;;;;;;;;;;6300051;22;19961;-55
2023/03/09 13:37:16;;;;;;;;;;;;;;;;;;6300859;22;19993;-61
2023/03/09 13:39:50;;;;;;;;;;;;;;;;;;6300480;22;19925;-61
2023/03/09 13:42:17;;;;;;;;;;;;;;;;;;6301262;22;19942;-61
2023/03/09 13:44:53;;;;;;;;;;;;;;;;;;6300072;22;19925;-61
2023/03/09 13:47:20;;;;;;;;;;;;;;;;;;6300943;22;19942;-61
2023/03/09 13:49:53;;;;;;;;;;;;;;;;;;6300142;22;19915;-62
2023/03/09 13:52:20;;;;;;;;;;;;;;;;;;6301638;22;20034;-56
2023/03/09 13:54:54;;;;;;;;;;;;;;;;;;6299406;22;20402;-56
2023/03/09 13:57:21;;;;;;;;;;;;;;;;;;6301653;22;19969;-56
2023/03/09 14:00:03;;;;;;;;;;;;;;;;;;6299872;22;19945;-55
2023/03/09 14:02:30;;;;;;;;;;;;;;;;;;6301273;22;19949;-50
2023/03/09 14:05:04;;;;;;;;;;;;;;;;;;6300079;22;19954;-59
2023/03/09 14:07:51;;;;;;;;;;;;;;;;;;6300508;22;19922;-61
2023/03/09 14:10:25;;;;;;;;;;;;;;;;;;6299467;22;19915;-61
2023/03/09 14:12:59;;;;;;;;;;;;;;;;;;6298894;22;20001;-61
2023/03/09 14:15:32;;;;;;;;;;;;;;;;;;6300599;22;19926;-62
2023/03/09 14:18:06;;;;;;;;;;;;;;;;;;6299665;22;20317;-62
2023/03/09 14:20:40;;;;;;;;;;;;;;;;;;6269496;22;19918;-55
2023/03/09 14:23:07;;;;;;;;;;;;;;;;;;6269697;22;19981;-55
2023/03/09 14:25:41;;;;;;;;;;;;;;;;;;6268629;22;19925;-54
2023/03/09 14:28:08;;;;;;;;;;;;;;;;;;6269133;22;19919;-54
2023/03/09 14:30:41;;;;;;;;;;;;;;;;;;6269920;22;20001;-54
2023/03/09 14:33:14;;;;;;;;;;;;;;;;;;6269950;22;19919;-57
2023/03/09 14:35:41;;;;;;;;;;;;;;;;;;6268100;22;19990;-53
2023/03/09 14:38:15;;;;;;;;;;;;;;;;;;6268603;22;20355;-56
2023/03/09 14:40:42;;;;;;;;;;;;;;;;;;6269102;22;19919;-55
2023/03/09 14:43:16;;;;;;;;;;;;;;;;;;6267913;22;19985;-52
2023/03/09 14:45:43;;;;;;;;;;;;;;;;;;6269998;22;20006;-57
2023/03/09 14:48:18;;;;;;;;;;;;;;;;;;6269938;22;19923;-56
2023/03/09 14:50:45;;;;;;;;;;;;;;;;;;6269113;22;20249;-60
2023/03/09 14:53:12;;;;;;;;;;;;;;;;;;6268515;22;20014;-57
2023/03/09 14:55:46;;;;;;;;;;;;;;;;;;6269110;22;19993;-55
2023/03/09 14:58:15;;;;;;;;;;;;;;;;;;6266980;22;20340;-58
2023/03/09 15:00:50;;;;;;;;;;;;;;;;;;6269338;22;19922;-64
2023/03/09 15:03:17;;;;;;;;;;;;;;;;;;6269622;22;19919;-56
2023/03/09 15:05:44;;;;;;;;;;;;;;;;;;6268680;22;19946;-57
2023/03/09 15:08:18;;;;;;;;;;;;;;;;;;6268011;22;19968;-59
2023/03/09 15:10:45;;;;;;;;;;;;;;;;;;6240816;22;19995;-55
2023/03/09 15:13:19;;;;;;;;;;;;;;;;;;6268317;22;19923;-57
2023/03/09 15:15:46;;;;;;;;;;;;;;;;;;6268646;22;20349;-56
2023/03/09 15:18:13;;;;;;;;;;;;;;;;;;6270623;22;19930;-57
2023/03/09 15:20:47;;;;;;;;;;;;;;;;;;6298385;22;19997;-59
2023/03/09 15:23:14;;;;;;;;;;;;;;;;;;6300306;22;19954;-59
2023/03/09 15:25:48;;;;;;;;;;;;;;;;;;6296246;22;20001;-57
2023/03/09 15:28:15;;;;;;;;;;;;;;;;;;6299214;22;20133;-50
2023/03/09 15:30:42;;;;;;;;;;;;;;;;;;6300596;22;19918;-57
2023/03/09 15:33:16;;;;;;;;;;;;;;;;;;6297788;22;20332;-64
2023/03/09 15:35:43;;;;;;;;;;;;;;;;;;6298971;22;20009;-63
2023/03/09 15:38:17;;;;;;;;;;;;;;;;;;6298726;22;19919;-63
2023/03/09 15:40:44;;;;;;;;;;;;;;;;;;6299328;22;19981;-63
2023/03/09 15:43:11;;;;;;;;;;;;;;;;;;6297414;22;20332;-63
2023/03/09 15:45:45;;;;;;;;;;;;;;;;;;6297892;22;19921;-63
2023/03/09 15:48:12;;;;;;;;;;;;;;;;;;6297991;22;20637;-54
2023/03/09 15:50:39;;;;;;;;;;;;;;;;;;6299075;22;19919;-54
2023/03/09 15:53:13;;;;;;;;;;;;;;;;;;6297594;22;20292;-51
2023/03/09 15:55:41;;;;;;;;;;;;;;;;;;6297824;22;20029;-49
2023/03/09 15:58:15;;;;;;;;;;;;;;;;;;6297420;22;19985;-51
2023/03/09 16:00:42;;;;;;;;;;;;;;;;;;6299858;22;19954;-51
2023/03/09 16:03:09;;;;;;;;;;;;;;;;;;6300020;22;19921;-52
2023/03/09 16:05:43;;;;;;;;;;;;;;;;;;6300596;22;19925;-55
2023/03/09 16:08:11;;;;;;;;;;;;;;;;;;6301007;22;19921;-61
2023/03/09 16:10:44;;;;;;;;;;;;;;;;;;6299897;22;19950;-60
2023/03/09 16:13:12;;;;;;;;;;;;;;;;;;6301442;22;20019;-60
2023/03/09 16:15:40;;;;;;;;;;;;;;;;;;6301298;22;19918;-60
2023/03/09 16:18:13;;;;;;;;;;;;;;;;;;6299706;22;20376;-60
2023/03/09 16:20:40;;;;;;;;;;;;;;;;;;6270376;22;19954;-60
2023/03/09 16:23:10;;;;;;;;;;;;;;;;;;6270278;22;19923;-51
2023/03/09 16:25:43;;;;;;;;;;;;;;;;;;6267891;22;19943;-62
2023/03/09 16:28:10;;;;;;;;;;;;;;;;;;6270165;22;19923;-58
2023/03/09 16:30:44;;;;;;;;;;;;;;;;;;6268371;22;20333;-54
2023/03/09 16:33:11;;;;;;;;;;;;;;;;;;6266574;22;20299;-55
2023/03/09 16:35:39;;;;;;;;;;;;;;;;;;6268713;22;19942;-55
2023/03/09 16:38:12;;;;;;;;;;;;;;;;;;6269796;22;19915;-57
2023/03/09 16:40:39;;;;;;;;;;;;;;;;;;6268849;22;19982;-53
2023/03/09 16:43:13;;;;;;;;;;;;;;;;;;6270358;22;19998;-66
2023/03/09 16:45:40;;;;;;;;;;;;;;;;;;6271097;22;19926;-57
2023/03/09 16:48:08;;;;;;;;;;;;;;;;;;6268801;22;20401;-58
2023/03/09 16:50:42;;;;;;;;;;;;;;;;;;6269655;22;19994;-59
2023/03/09 16:53:09;;;;;;;;;;;;;;;;;;6269949;22;19951;-58
2023/03/09 16:55:43;;;;;;;;;;;;;;;;;;6270322;22;19990;-59
2023/03/09 16:58:10;;;;;;;;;;;;;;;;;;6269931;22;20017;-59
2023/03/09 17:00:44;;;;;;;;;;;;;;;;;;6271274;22;20307;-51
2023/03/09 17:03:11;;;;;;;;;;;;;;;;;;6268911;22;19998;-55
2023/03/09 17:05:38;;;;;;;;;;;;;;;;;;6270695;22;19939;-54